Time;durP1;ratioP1;P1;durP2;ratioP2;P2;SDS_P1;SDS_P2;PMS_P1;PMS_P2;Temp;Humidity;BMP_temperature;BMP_pressure;BME280_temperature;BME280_humidity;BME280_pressure;Samples;Min_cycle;Max_cycle;Signal;HPM_P1;HPM_P2
2021/01/22 00:01:04;;;;;;;52.88;24.27;;;3.90;79.90;;;;;;5056756;28;20025;-82
2021/01/22 00:03:30;;;;;;;54.05;24.90;;;3.80;79.80;;;;;;5060716;28;20033;-84
2021/01/22 00:05:56;;;;;;;52.45;23.83;;;3.80;80.00;;;;;;5058551;28;20046;-83
2021/01/22 00:08:22;;;;;;;55.67;26.15;;;3.90;80.10;;;;;;5059807;28;20144;-82
2021/01/22 00:10:48;;;;;;;47.13;22.55;;;3.80;80.00;;;;;;5058613;28;20029;-86
2021/01/22 00:13:13;;;;;;;53.35;25.27;;;3.80;80.00;;;;;;5058985;28;20495;-83
2021/01/22 00:15:39;;;;;;;48.28;24.58;;;3.80;80.00;;;;;;5039933;28;20453;-84
2021/01/22 00:18:05;;;;;;;59.08;26.52;;;3.90;80.20;;;;;;5056998;28;20111;-84
2021/01/22 00:20:31;;;;;;;56.45;26.27;;;3.90;80.20;;;;;;5056215;28;20056;-85
2021/01/22 00:22:57;;;;;;;55.40;26.40;;;3.90;80.10;;;;;;5056246;28;20032;-83
2021/01/22 00:25:22;;;;;;;60.17;26.13;;;3.90;80.00;;;;;;5056072;28;20438;-85
2021/01/22 00:27:48;;;;;;;59.55;27.58;;;3.90;79.90;;;;;;5056439;28;20057;-85
2021/01/22 00:30:14;;;;;;;47.13;23.95;;;3.90;80.10;;;;;;5055845;28;20025;-82
2021/01/22 00:32:50;;;;;;;57.15;26.45;;;3.90;80.00;;;;;;5059119;28;20275;-84
2021/01/22 00:35:16;;;;;;;64.80;26.25;;;3.90;79.90;;;;;;5061440;28;20403;-83
2021/01/22 00:37:53;;;;;;;52.13;21.98;;;3.90;80.00;;;;;;5038458;28;20025;-84
2021/01/22 00:40:18;;;;;;;63.88;28.38;;;3.90;79.90;;;;;;5055638;28;20063;-87
2021/01/22 00:42:44;;;;;;;60.40;25.75;;;3.90;80.00;;;;;;5055464;28;20017;-84
2021/01/22 00:45:10;;;;;;;63.53;26.38;;;3.90;79.90;;;;;;5055718;28;20040;-85
2021/01/22 00:47:36;;;;;;;62.22;27.95;;;3.90;80.00;;;;;;5055751;28;20025;-83
2021/01/22 00:50:03;;;;;;;60.10;26.58;;;3.80;80.00;;;;;;5055600;28;20051;-84
2021/01/22 00:52:29;;;;;;;56.35;26.00;;;3.90;80.20;;;;;;5055625;28;20037;-86
2021/01/22 00:54:55;;;;;;;61.67;26.98;;;3.80;80.20;;;;;;5055587;28;20536;-85
2021/01/22 00:57:21;;;;;;;55.63;24.88;;;3.90;80.10;;;;;;5055436;28;20040;-84
2021/01/22 00:59:47;;;;;;;52.65;24.55;;;3.80;80.10;;;;;;5056217;28;20025;-84
2021/01/22 01:02:13;;;;;;;59.58;24.20;;;3.80;80.10;;;;;;5055162;28;20096;-82
2021/01/22 01:04:38;;;;;;;57.88;24.35;;;3.80;79.80;;;;;;5059784;28;20033;-83
2021/01/22 01:07:04;;;;;;;52.70;22.73;;;3.80;80.00;;;;;;5055180;28;20537;-83
2021/01/22 01:09:30;;;;;;;54.67;25.75;;;3.70;80.00;;;;;;5036803;28;20481;-83
2021/01/22 01:11:56;;;;;;;53.13;23.50;;;3.70;80.30;;;;;;5055020;28;20493;-84
2021/01/22 01:14:22;;;;;;;51.55;24.63;;;3.70;80.60;;;;;;5054736;28;20092;-83
2021/01/22 01:17:03;;;;;;;63.15;25.63;;;3.70;80.50;;;;;;5054588;28;20052;-83
2021/01/22 01:19:30;;;;;;;54.33;22.85;;;3.70;80.40;;;;;;5054659;28;20025;-84
2021/01/22 01:21:55;;;;;;;46.10;21.58;;;3.70;80.30;;;;;;5044413;28;20021;-85
2021/01/22 01:24:21;;;;;;;41.67;19.58;;;3.70;80.20;;;;;;5021917;28;20052;-83
2021/01/22 01:26:47;;;;;;;48.15;20.88;;;3.60;80.30;;;;;;5034455;28;20038;-83
2021/01/22 01:29:13;;;;;;;43.45;21.02;;;3.60;80.30;;;;;;5034334;28;20029;-82
2021/01/22 01:31:43;;;;;;;48.42;21.45;;;3.60;80.40;;;;;;5034371;28;20049;-81
2021/01/22 01:34:09;;;;;;;42.22;19.75;;;3.60;80.60;;;;;;5034171;28;20064;-83
2021/01/22 01:36:35;;;;;;;40.58;19.50;;;3.50;80.50;;;;;;5034017;28;20103;-82
2021/01/22 01:39:10;;;;;;;44.90;21.33;;;3.50;80.50;;;;;;5034018;28;20479;-83
2021/01/22 01:41:36;;;;;;;37.03;16.52;;;3.50;80.70;;;;;;5049755;28;20084;-82
2021/01/22 01:44:02;;;;;;;53.05;22.92;;;3.50;80.80;;;;;;5054459;28;20079;-83
2021/01/22 01:46:28;;;;;;;49.58;22.38;;;3.50;80.70;;;;;;5054456;28;20377;-83
2021/01/22 01:48:55;;;;;;;49.40;23.52;;;3.50;80.90;;;;;;5054032;28;20076;-83
2021/01/22 01:51:20;;;;;;;45.90;21.00;;;3.50;81.10;;;;;;5053919;28;20041;-82
2021/01/22 01:53:46;;;;;;;42.53;19.75;;;3.50;80.90;;;;;;5054126;28;20489;-83
2021/01/22 01:56:12;;;;;;;37.42;17.77;;;3.50;80.90;;;;;;5053153;28;20041;-81
2021/01/22 01:58:39;;;;;;;48.90;21.67;;;3.50;80.80;;;;;;5035845;28;20024;-83
2021/01/22 02:01:07;;;;;;;49.42;21.95;;;3.50;80.70;;;;;;5053488;28;20029;-85
2021/01/22 02:03:34;;;;;;;46.33;22.05;;;3.50;80.70;;;;;;5053688;28;20438;-84
2021/01/22 02:05:59;;;;;;;39.17;19.55;;;3.50;80.70;;;;;;5053827;28;20021;-85
2021/01/22 02:08:25;;;;;;;36.65;15.75;;;3.40;80.60;;;;;;5053490;28;20021;-86
2021/01/22 02:10:54;;;;;;;46.90;18.75;;;3.40;80.60;;;;;;5057881;28;20025;-85
2021/01/22 02:13:22;;;;;;;50.38;19.95;;;3.40;80.60;;;;;;5064309;28;20100;-85
2021/01/22 02:15:51;;;;;;;44.85;18.48;;;3.30;80.70;;;;;;5053937;28;20051;-87
2021/01/22 02:18:17;;;;;;;38.42;18.15;;;3.30;80.80;;;;;;5053001;28;20120;-80
2021/01/22 02:21:07;;;;;;;42.58;19.83;;;3.30;81.00;;;;;;5053220;28;20029;-87
2021/01/22 02:23:35;;;;;;;44.03;19.98;;;3.20;81.00;;;;;;5054056;28;20025;-86
2021/01/22 02:26:29;;;;;;;40.47;16.55;;;3.30;81.10;;;;;;5054185;28;20374;-85
2021/01/22 02:29:02;;;;;;;45.53;17.25;;;3.20;81.00;;;;;;5035628;28;20465;-85
2021/01/22 02:31:30;;;;;;;47.63;20.20;;;3.20;81.00;;;;;;5051919;28;20451;-86
2021/01/22 02:34:09;;;;;;;49.80;21.13;;;3.20;81.20;;;;;;5053657;28;20364;-84
2021/01/22 02:36:36;;;;;;;51.00;21.38;;;3.20;81.30;;;;;;5053336;28;20167;-85
2021/01/22 02:39:04;;;;;;;46.47;20.88;;;3.10;81.20;;;;;;5052524;28;20032;-85
2021/01/22 02:41:32;;;;;;;34.47;16.08;;;3.10;81.40;;;;;;5053361;28;20080;-81
2021/01/22 02:44:02;;;;;;;42.55;19.25;;;3.10;81.40;;;;;;5057022;28;20017;-84
2021/01/22 02:46:31;;;;;;;39.47;19.58;;;3.10;81.60;;;;;;5052152;28;20033;-85
2021/01/22 02:48:58;;;;;;;41.35;20.60;;;3.10;81.50;;;;;;5052204;28;20025;-84
2021/01/22 02:51:24;;;;;;;40.92;18.70;;;3.10;81.60;;;;;;5053640;28;20124;-85
2021/01/22 02:53:50;;;;;;;37.35;16.98;;;3.10;81.50;;;;;;5053081;28;20037;-84
2021/01/22 02:57:01;;;;;;;37.72;18.30;;;3.10;81.60;;;;;;5053416;28;20048;-81
2021/01/22 03:00:01;;;;;;;37.58;17.40;;;3.10;81.60;;;;;;5049643;28;20033;-82
2021/01/22 03:02:39;;;;;;;32.92;15.30;;;3.10;81.40;;;;;;5053037;28;20071;-83
2021/01/22 03:05:06;;;;;;;38.35;18.20;;;3.10;81.30;;;;;;5053400;28;20101;-81
2021/01/22 03:07:57;;;;;;;40.72;17.63;;;3.10;81.40;;;;;;5058386;28;20029;-84
2021/01/22 03:10:30;;;;;;;40.20;17.55;;;3.10;81.50;;;;;;5068754;28;20031;-85
2021/01/22 03:12:57;;;;;;;38.50;17.60;;;3.10;81.50;;;;;;5055704;28;20178;-87
2021/01/22 03:15:24;;;;;;;39.13;17.85;;;3.10;81.70;;;;;;5054173;28;20017;-85
2021/01/22 03:17:50;;;;;;;42.65;19.60;;;3.10;81.60;;;;;;5053068;28;20032;-85
2021/01/22 03:20:19;;;;;;;41.22;20.30;;;3.10;81.70;;;;;;5053785;28;20105;-87
2021/01/22 03:22:55;;;;;;;41.45;17.20;;;3.10;81.70;;;;;;5066636;28;20466;-87
2021/01/22 03:25:21;;;;;;;39.13;17.45;;;3.10;81.60;;;;;;5058130;28;20541;-87
2021/01/22 03:27:57;;;;;;;43.00;19.27;;;3.10;81.40;;;;;;5062047;28;20048;-85
2021/01/22 03:30:23;;;;;;;35.92;17.27;;;3.10;81.50;;;;;;5054470;28;20017;-82
2021/01/22 03:32:51;;;;;;;38.55;19.13;;;3.10;81.30;;;;;;5053382;28;20040;-86
2021/01/22 03:35:28;;;;;;;42.92;17.83;;;3.10;81.10;;;;;;5051782;28;20128;-87
2021/01/22 03:37:55;;;;;;;36.55;17.83;;;3.10;81.10;;;;;;5034855;28;20390;-87
2021/01/22 03:40:21;;;;;;;39.92;17.58;;;3.00;81.20;;;;;;5052568;28;20529;-86
2021/01/22 03:42:47;;;;;;;40.40;19.08;;;3.00;81.40;;;;;;5053290;28;20029;-87
2021/01/22 03:45:16;;;;;;;43.50;19.85;;;3.00;81.40;;;;;;5053191;28;20067;-86
2021/01/22 03:47:42;;;;;;;38.60;18.88;;;3.00;81.50;;;;;;5053458;28;20079;-85
2021/01/22 03:50:08;;;;;;;40.10;19.80;;;3.00;81.60;;;;;;5054060;28;20025;-87
2021/01/22 03:52:34;;;;;;;38.08;17.50;;;3.00;81.50;;;;;;5056606;28;20504;-82
2021/01/22 03:55:00;;;;;;;45.05;19.35;;;3.00;81.50;;;;;;5056948;28;20025;-85
2021/01/22 03:57:26;;;;;;;42.83;19.50;;;3.00;81.60;;;;;;5056380;28;20021;-86
2021/01/22 03:59:51;;;;;;;40.53;18.42;;;3.00;81.50;;;;;;5065091;28;20489;-86
2021/01/22 04:02:20;;;;;;;39.90;18.67;;;3.00;81.60;;;;;;5076087;28;20032;-86
2021/01/22 04:04:47;;;;;;;38.70;18.20;;;3.00;81.60;;;;;;5058438;28;20032;-86
2021/01/22 04:07:13;;;;;;;42.35;19.63;;;3.00;81.60;;;;;;5058099;28;20043;-85
2021/01/22 04:09:43;;;;;;;50.70;19.73;;;3.00;81.70;;;;;;5075733;28;20079;-82
2021/01/22 04:12:09;;;;;;;46.20;20.75;;;3.00;81.50;;;;;;5075896;28;20029;-85
2021/01/22 04:14:35;;;;;;;49.75;21.13;;;3.00;81.50;;;;;;5075833;28;20027;-84
2021/01/22 04:17:01;;;;;;;52.88;22.25;;;3.00;81.70;;;;;;5076636;28;20029;-85
2021/01/22 04:19:27;;;;;;;52.05;21.27;;;3.00;81.80;;;;;;5079458;28;20016;-85
2021/01/22 04:21:55;;;;;;;93.68;21.58;;;3.10;82.00;;;;;;5078447;28;20021;-85
2021/01/22 04:24:21;;;;;;;59.28;21.30;;;3.10;81.90;;;;;;5075993;28;20021;-85
2021/01/22 04:26:47;;;;;;;52.88;19.60;;;3.10;81.70;;;;;;5075423;28;20027;-84
2021/01/22 04:29:16;;;;;;;58.70;22.95;;;3.10;81.80;;;;;;5076149;28;20056;-86
2021/01/22 04:31:42;;;;;;;86.93;30.85;;;3.10;81.80;;;;;;5083266;28;20040;-87
2021/01/22 04:34:08;;;;;;;44.40;17.73;;;3.00;81.90;;;;;;5083368;28;20017;-86
2021/01/22 04:36:34;;;;;;;69.80;22.55;;;3.10;81.80;;;;;;5075556;28;20090;-86
2021/01/22 04:39:00;;;;;;;63.72;21.98;;;3.00;81.60;;;;;;5075625;28;20029;-82
2021/01/22 04:41:26;;;;;;;54.65;21.13;;;3.10;81.90;;;;;;5075317;28;20441;-85
2021/01/22 04:43:52;;;;;;;61.42;20.42;;;3.10;81.90;;;;;;5076349;28;20021;-85
2021/01/22 04:46:19;;;;;;;67.80;25.55;;;3.00;81.90;;;;;;5081628;28;20363;-84
2021/01/22 04:48:47;;;;;;;59.50;20.90;;;3.00;81.90;;;;;;5049199;28;20060;-85
2021/01/22 04:51:20;;;;;;;57.70;20.15;;;3.10;82.00;;;;;;5077197;28;20037;-83
2021/01/22 04:53:49;;;;;;;55.72;18.42;;;3.10;81.80;;;;;;5074993;28;20024;-85
2021/01/22 04:56:21;;;;;;;63.22;21.77;;;3.00;81.80;;;;;;5057343;28;20024;-86
2021/01/22 04:58:51;;;;;;;55.40;21.83;;;3.00;81.80;;;;;;5075105;28;20028;-84
2021/01/22 05:01:18;;;;;;;58.60;22.55;;;3.00;82.00;;;;;;5074620;28;20028;-87
2021/01/22 05:03:44;;;;;;;55.35;20.33;;;3.00;82.10;;;;;;5044311;28;20025;-82
2021/01/22 05:06:10;;;;;;;64.63;21.33;;;3.00;82.00;;;;;;5054981;28;20033;-84
2021/01/22 05:08:36;;;;;;;65.95;22.83;;;3.00;82.00;;;;;;5054547;28;20475;-84
2021/01/22 05:11:02;;;;;;;64.35;20.38;;;3.00;82.00;;;;;;5054992;28;20045;-85
2021/01/22 05:13:27;;;;;;;57.28;21.15;;;3.00;82.40;;;;;;5055918;28;20067;-83
2021/01/22 05:16:11;;;;;;;57.33;20.52;;;3.00;82.70;;;;;;5054938;28;20082;-87
2021/01/22 05:18:37;;;;;;;60.08;20.50;;;3.00;82.80;;;;;;5054552;28;20411;-85
2021/01/22 05:21:12;;;;;;;52.40;20.02;;;3.00;82.70;;;;;;5054511;28;20021;-84
2021/01/22 05:23:40;;;;;;;57.33;16.83;;;3.00;82.50;;;;;;5062229;28;20013;-83
2021/01/22 05:26:10;;;;;;;49.42;18.48;;;3.00;82.40;;;;;;5054927;28;20024;-84
2021/01/22 05:28:43;;;;;;;57.70;18.80;;;3.00;82.10;;;;;;5054447;28;20021;-82
2021/01/22 05:31:11;;;;;;;42.65;18.75;;;3.00;82.10;;;;;;5054044;28;20037;-86
2021/01/22 05:33:56;;;;;;;57.90;21.13;;;3.00;82.30;;;;;;5048282;28;20461;-81
2021/01/22 05:36:27;;;;;;;51.88;22.50;;;3.00;82.50;;;;;;5044591;28;20087;-80
2021/01/22 05:38:55;;;;;;;56.08;19.20;;;3.00;82.60;;;;;;5045110;28;20040;-85
2021/01/22 05:41:21;;;;;;;51.05;19.67;;;3.00;82.70;;;;;;5044347;28;20045;-82
2021/01/22 05:43:49;;;;;;;45.28;16.67;;;3.00;82.90;;;;;;5047227;28;20024;-84
2021/01/22 05:46:20;;;;;;;43.72;16.77;;;3.00;82.80;;;;;;5034763;28;20052;-84
2021/01/22 05:48:46;;;;;;;42.92;17.65;;;2.90;82.50;;;;;;5019008;28;20060;-84
2021/01/22 05:51:13;;;;;;;51.92;17.83;;;2.90;82.50;;;;;;5034994;28;20022;-83
2021/01/22 05:53:55;;;;;;;47.85;17.80;;;2.90;82.80;;;;;;5033785;28;20036;-81
2021/01/22 05:56:21;;;;;;;47.75;17.02;;;2.90;83.00;;;;;;5035624;28;20112;-81
2021/01/22 05:58:48;;;;;;;57.72;22.27;;;2.90;83.20;;;;;;5034398;28;20117;-84
2021/01/22 06:01:21;;;;;;;57.45;22.55;;;3.00;83.20;;;;;;5033789;28;20021;-83
2021/01/22 06:03:58;;;;;;;58.55;22.75;;;2.90;83.10;;;;;;5033696;28;20060;-83
2021/01/22 06:06:31;;;;;;;58.42;18.27;;;3.00;83.40;;;;;;5033965;28;20029;-82
2021/01/22 06:08:58;;;;;;;54.17;20.98;;;3.00;83.00;;;;;;5035632;28;20112;-87
2021/01/22 06:11:32;;;;;;;58.50;18.88;;;3.00;82.70;;;;;;5033203;28;20047;-84
2021/01/22 06:14:05;;;;;;;50.03;17.77;;;3.00;82.90;;;;;;5014886;28;20040;-84
2021/01/22 06:16:32;;;;;;;41.33;16.40;;;2.90;82.90;;;;;;5016047;28;20112;-83
2021/01/22 06:19:00;;;;;;;53.60;19.13;;;2.90;83.20;;;;;;5033995;28;20063;-86
2021/01/22 06:21:39;;;;;;;56.95;20.73;;;2.90;83.10;;;;;;5033861;28;20034;-86
2021/01/22 06:24:06;;;;;;;100.72;21.05;;;2.90;83.30;;;;;;5035333;28;20037;-85
2021/01/22 06:26:36;;;;;;;64.18;21.17;;;3.00;83.50;;;;;;5035289;28;20025;-84
2021/01/22 06:29:04;;;;;;;62.63;23.65;;;3.00;83.30;;;;;;5034011;28;20024;-84
2021/01/22 06:31:30;;;;;;;78.07;25.52;;;3.00;83.20;;;;;;5033779;28;20017;-85
2021/01/22 06:33:57;;;;;;;83.35;25.70;;;3.00;83.40;;;;;;5033800;28;20120;-84
2021/01/22 06:36:24;;;;;;;83.07;27.33;;;3.10;83.70;;;;;;5033586;28;20028;-86
2021/01/22 06:38:54;;;;;;;77.57;27.48;;;3.10;83.70;;;;;;5015773;28;20033;-84
2021/01/22 06:41:30;;;;;;;67.68;23.38;;;3.10;83.60;;;;;;5033306;28;20376;-84
2021/01/22 06:44:01;;;;;;;66.10;25.00;;;3.10;83.20;;;;;;5034302;28;20021;-84
2021/01/22 06:46:33;;;;;;;62.90;22.70;;;3.10;83.00;;;;;;5035565;28;20474;-84
2021/01/22 06:49:01;;;;;;;55.90;23.02;;;3.20;83.00;;;;;;5033553;28;20091;-82
2021/01/22 06:51:35;;;;;;;69.30;24.88;;;3.20;83.10;;;;;;5033067;28;20112;-83
2021/01/22 06:54:07;;;;;;;65.45;24.95;;;3.20;83.10;;;;;;5033179;28;20049;-82
2021/01/22 06:56:55;;;;;;;61.80;24.38;;;3.20;83.00;;;;;;5033481;28;20040;-84
2021/01/22 06:59:35;;;;;;;60.63;20.00;;;3.20;83.10;;;;;;5032457;28;20049;-83
2021/01/22 07:02:01;;;;;;;61.97;22.02;;;3.20;83.70;;;;;;5032976;28;20033;-83
2021/01/22 07:04:33;;;;;;;57.15;22.48;;;3.20;82.90;;;;;;5033002;28;20031;-81
2021/01/22 07:07:06;;;;;;;67.93;22.00;;;3.20;83.00;;;;;;5042817;28;20029;-82
2021/01/22 07:09:47;;;;;;;65.60;24.10;;;3.20;83.00;;;;;;5048532;28;20032;-82
2021/01/22 07:12:35;;;;;;;77.30;25.48;;;3.20;82.90;;;;;;5054282;28;20040;-84
2021/01/22 07:15:01;;;;;;;71.18;27.42;;;3.30;83.00;;;;;;5053168;28;20025;-82
2021/01/22 07:17:29;;;;;;;71.35;27.40;;;3.30;83.00;;;;;;5052601;28;20029;-81
2021/01/22 07:20:01;;;;;;;66.03;24.23;;;3.30;83.20;;;;;;5052241;28;20021;-82
2021/01/22 07:22:30;;;;;;;48.90;20.02;;;3.30;83.00;;;;;;5052098;28;20033;-82
2021/01/22 07:24:58;;;;;;;47.33;18.75;;;3.30;82.90;;;;;;5053658;28;20021;-83
2021/01/22 07:27:44;;;;;;;46.30;18.58;;;3.30;82.80;;;;;;5056772;28;20033;-83
2021/01/22 07:30:13;;;;;;;45.47;20.77;;;3.30;82.80;;;;;;5056786;28;20132;-82
2021/01/22 07:32:41;;;;;;;52.45;22.73;;;3.40;82.70;;;;;;5056298;28;20029;-83
2021/01/22 07:35:35;;;;;;;45.97;18.23;;;3.40;82.90;;;;;;5057133;28;20431;-82
2021/01/22 07:38:01;;;;;;;46.00;21.15;;;3.40;82.70;;;;;;5054094;28;20206;-83
2021/01/22 07:40:29;;;;;;;45.33;20.67;;;3.40;82.40;;;;;;5038053;28;20044;-83
2021/01/22 07:42:54;;;;;;;50.95;22.42;;;3.50;82.70;;;;;;5057006;28;20056;-82
2021/01/22 07:45:20;;;;;;;55.20;22.42;;;3.50;82.70;;;;;;5057624;28;20028;-84
2021/01/22 07:47:47;;;;;;;53.08;21.23;;;3.50;82.50;;;;;;5056729;28;20374;-83
2021/01/22 07:50:15;;;;;;;53.17;23.77;;;3.50;82.80;;;;;;5056223;28;20552;-82
2021/01/22 07:52:46;;;;;;;59.00;25.30;;;3.60;82.70;;;;;;5037655;28;20080;-86
2021/01/22 07:55:17;;;;;;;49.53;21.08;;;3.60;82.70;;;;;;5056217;28;20013;-84
2021/01/22 07:57:44;;;;;;;58.15;23.10;;;3.70;82.70;;;;;;5038531;28;20051;-84
2021/01/22 08:00:13;;;;;;;56.83;26.13;;;3.70;82.30;;;;;;5056246;28;20028;-83
2021/01/22 08:03:00;;;;;;;61.20;25.27;;;3.70;82.20;;;;;;5056284;28;20025;-83
2021/01/22 08:05:36;;;;;;;55.38;23.92;;;3.70;82.40;;;;;;5046889;28;20029;-82
2021/01/22 08:08:16;;;;;;;50.33;23.25;;;3.80;82.30;;;;;;5053219;28;20481;-83
2021/01/22 08:10:43;;;;;;;56.15;24.20;;;3.80;81.80;;;;;;5056347;28;20075;-82
2021/01/22 08:13:10;;;;;;;59.67;25.17;;;3.90;82.20;;;;;;5042615;28;20090;-82
2021/01/22 08:16:28;;;;;;;60.08;26.17;;;3.90;81.90;;;;;;5047793;28;20013;-82
2021/01/22 08:18:55;;;;;;;52.45;23.40;;;3.90;81.80;;;;;;5045755;28;20033;-83
2021/01/22 08:21:22;;;;;;;46.03;22.35;;;3.90;82.00;;;;;;5043645;28;20036;-82
2021/01/22 08:23:55;;;;;;;45.85;20.60;;;4.00;81.80;;;;;;5047911;28;20109;-82
2021/01/22 08:26:20;;;;;;;54.63;22.33;;;4.00;81.40;;;;;;5045188;28;20033;-82
2021/01/22 08:28:51;;;;;;;42.30;18.85;;;4.00;81.20;;;;;;5044018;28;20083;-83
2021/01/22 08:31:18;;;;;;;28.83;12.70;;;4.00;81.30;;;;;;5043507;28;20037;-83
2021/01/22 08:33:47;;;;;;;36.17;19.50;;;4.00;80.70;;;;;;5025195;28;20022;-82
2021/01/22 08:36:13;;;;;;;42.10;19.50;;;4.00;80.60;;;;;;5043082;28;20025;-84
2021/01/22 08:38:39;;;;;;;44.53;19.92;;;4.00;80.60;;;;;;5026705;28;20492;-83
2021/01/22 08:41:35;;;;;;;38.45;17.35;;;4.00;80.80;;;;;;5043354;28;20120;-81
2021/01/22 08:44:06;;;;;;;41.47;19.48;;;4.00;80.80;;;;;;5029021;28;20441;-82
2021/01/22 08:46:32;;;;;;;48.20;23.23;;;4.00;80.60;;;;;;5044002;28;20025;-83
2021/01/22 08:49:09;;;;;;;42.97;20.65;;;4.00;80.70;;;;;;5045647;28;20021;-82
2021/01/22 08:51:37;;;;;;;34.30;16.63;;;4.00;80.50;;;;;;5044489;28;20013;-82
2021/01/22 08:54:03;;;;;;;29.55;15.45;;;4.00;80.30;;;;;;5044131;28;20406;-82
2021/01/22 08:56:29;;;;;;;38.33;18.85;;;4.00;80.10;;;;;;5044198;28;20466;-85
2021/01/22 08:59:23;;;;;;;46.47;19.83;;;4.00;80.10;;;;;;5037492;28;20101;-83
2021/01/22 09:01:56;;;;;;;42.50;19.02;;;4.00;80.60;;;;;;5043830;28;20022;-82
2021/01/22 09:04:27;;;;;;;41.60;17.98;;;4.00;80.70;;;;;;5042972;28;20079;-84
2021/01/22 09:10:24;;;;;;;38.40;18.17;;;4.00;80.60;;;;;;5044110;28;20028;-86
2021/01/22 09:13:21;;;;;;;41.72;19.35;;;4.10;80.80;;;;;;5043868;28;20105;-83
2021/01/22 09:15:47;;;;;;;36.03;19.50;;;4.10;80.80;;;;;;5016989;28;20025;-82
2021/01/22 09:18:33;;;;;;;39.22;18.38;;;4.20;80.60;;;;;;5054707;28;20055;-82
2021/01/22 09:21:06;;;;;;;47.55;17.90;;;4.20;80.10;;;;;;5054258;28;20028;-85
2021/01/22 09:23:32;;;;;;;36.53;17.33;;;4.20;80.10;;;;;;5054648;28;20044;-82
2021/01/22 09:26:23;;;;;;;37.78;18.15;;;4.20;80.20;;;;;;5054611;28;20025;-82
2021/01/22 09:29:28;;;;;;;44.58;20.05;;;4.20;80.00;;;;;;5055460;28;20112;-81
2021/01/22 09:35:51;;;;;;;42.47;20.90;;;4.40;80.00;;;;;;5056844;28;20036;-86
2021/01/22 09:45:15;;;;;;;43.70;21.17;;;4.60;80.20;;;;;;5035692;28;20133;-85
2021/01/22 09:51:04;;;;;;;42.03;20.45;;;4.80;79.70;;;;;;5034110;28;20402;-82
2021/01/22 09:56:52;;;;;;;43.75;21.60;;;4.90;79.10;;;;;;5015764;28;20041;-82
2021/01/22 10:02:39;;;;;;;39.30;19.13;;;4.90;78.30;;;;;;5033673;28;20044;-84
2021/01/22 10:08:28;;;;;;;40.85;18.95;;;4.90;78.20;;;;;;5034169;28;20117;-84
2021/01/22 10:14:16;;;;;;;37.92;20.10;;;4.90;78.40;;;;;;5033939;28;20447;-88
2021/01/22 10:20:04;;;;;;;38.40;18.45;;;5.00;78.20;;;;;;5034366;28;20044;-85
2021/01/22 10:25:52;;;;;;;40.05;20.25;;;5.20;78.00;;;;;;5034061;28;20133;-85
2021/01/22 10:31:40;;;;;;;42.05;21.02;;;5.40;77.60;;;;;;5034266;28;20056;-82
2021/01/22 10:34:06;;;;;;;43.95;22.75;;;5.60;77.70;;;;;;5033133;28;20029;-82
2021/01/22 10:36:31;;;;;;;39.85;20.27;;;5.60;78.10;;;;;;5031075;28;20382;-84
2021/01/22 10:38:57;;;;;;;35.90;18.80;;;5.80;77.40;;;;;;5034289;28;20090;-84
2021/01/22 10:41:28;;;;;;;36.47;19.33;;;5.80;76.70;;;;;;5024060;28;20053;-82
2021/01/22 10:43:54;;;;;;;38.05;21.45;;;5.90;76.20;;;;;;5032456;28;20037;-83
2021/01/22 10:46:19;;;;;;;43.72;20.80;;;5.90;76.10;;;;;;5033284;28;20029;-83
2021/01/22 10:48:45;;;;;;;40.20;20.33;;;5.90;75.50;;;;;;5033200;28;20057;-84
2021/01/22 10:51:21;;;;;;;32.67;18.95;;;6.00;75.40;;;;;;5029630;28;20401;-85
2021/01/22 10:53:47;;;;;;;33.10;17.60;;;6.00;75.30;;;;;;5033555;28;20462;-87
2021/01/22 10:56:21;;;;;;;34.00;18.73;;;6.00;73.90;;;;;;5033959;28;20051;-83
2021/01/22 10:58:47;;;;;;;32.85;17.55;;;5.80;74.10;;;;;;5032318;28;20521;-84
2021/01/22 11:01:20;;;;;;;36.05;19.63;;;5.70;74.00;;;;;;5038658;28;20034;-83
2021/01/22 11:03:47;;;;;;;35.25;19.67;;;5.50;74.30;;;;;;5037789;28;20023;-82
2021/01/22 11:06:17;;;;;;;36.78;21.02;;;5.50;74.70;;;;;;5039413;28;20421;-81
2021/01/22 11:08:43;;;;;;;46.60;23.30;;;5.40;75.00;;;;;;5039233;28;20026;-85
2021/01/22 11:11:09;;;;;;;39.42;20.92;;;5.40;74.90;;;;;;5021852;28;20071;-81
2021/01/22 11:13:35;;;;;;;44.00;20.58;;;5.30;74.70;;;;;;5039333;28;20348;-86
2021/01/22 11:16:16;;;;;;;34.05;18.65;;;5.30;75.10;;;;;;5039077;28;20116;-85
2021/01/22 11:18:42;;;;;;;32.15;18.35;;;5.30;75.80;;;;;;5021126;28;20079;-83
2021/01/22 11:21:09;;;;;;;39.35;20.98;;;5.40;76.20;;;;;;5037596;28;20039;-83
2021/01/22 11:23:35;;;;;;;37.42;20.08;;;5.50;76.10;;;;;;5039132;28;20096;-83
2021/01/22 11:26:06;;;;;;;37.50;19.15;;;5.60;75.40;;;;;;5039299;28;20074;-85
2021/01/22 11:28:33;;;;;;;41.22;20.45;;;5.60;74.90;;;;;;5039286;28;20053;-83
2021/01/22 11:30:59;;;;;;;37.90;19.73;;;5.60;74.80;;;;;;5039531;28;20030;-82
2021/01/22 11:33:24;;;;;;;35.53;20.10;;;5.60;75.40;;;;;;5040458;28;20037;-84
2021/01/22 11:35:55;;;;;;;35.85;20.05;;;5.80;75.80;;;;;;5039514;28;20021;-84
2021/01/22 11:38:21;;;;;;;38.65;19.77;;;5.90;75.80;;;;;;5039753;28;20034;-84
2021/01/22 11:40:46;;;;;;;35.83;19.15;;;6.20;75.90;;;;;;5045704;28;20033;-83
2021/01/22 11:43:13;;;;;;;35.67;20.73;;;6.40;75.80;;;;;;5058595;28;20068;-85
2021/01/22 11:45:39;;;;;;;35.72;19.85;;;6.60;74.70;;;;;;5058655;28;20021;-81
2021/01/22 11:48:05;;;;;;;36.42;18.40;;;6.70;74.30;;;;;;5058730;28;20029;-82
2021/01/22 11:50:31;;;;;;;39.22;21.10;;;6.80;73.00;;;;;;5058691;28;20104;-85
2021/01/22 11:53:07;;;;;;;35.00;20.60;;;6.70;72.70;;;;;;5058289;28;20605;-84
2021/01/22 11:55:33;;;;;;;40.95;21.50;;;6.80;72.50;;;;;;5040497;28;20028;-86
2021/01/22 11:57:59;;;;;;;41.08;21.25;;;6.70;71.70;;;;;;5058318;28;20025;-85
2021/01/22 12:00:24;;;;;;;34.60;18.75;;;6.60;71.60;;;;;;5058931;28;20028;-84
2021/01/22 12:02:50;;;;;;;44.03;23.58;;;6.70;73.30;;;;;;5058711;28;20031;-85
2021/01/22 12:05:16;;;;;;;36.47;22.23;;;7.10;74.30;;;;;;5058825;28;20052;-84
2021/01/22 12:07:42;;;;;;;40.15;23.80;;;7.90;74.90;;;;;;5058859;28;20032;-84
2021/01/22 12:10:08;;;;;;;32.35;19.98;;;8.50;73.90;;;;;;5058475;28;20040;-83
2021/01/22 12:12:34;;;;;;;32.33;19.13;;;9.40;73.00;;;;;;5056032;28;20551;-82
2021/01/22 12:14:59;;;;;;;36.78;21.35;;;10.30;69.90;;;;;;5055853;28;20033;-82
2021/01/22 12:17:25;;;;;;;34.40;20.45;;;10.90;68.50;;;;;;5055870;28;20051;-81
2021/01/22 12:19:52;;;;;;;33.75;20.45;;;11.40;66.50;;;;;;5036692;28;20033;-83
2021/01/22 12:22:17;;;;;;;47.92;23.58;;;11.90;65.10;;;;;;5052037;28;20482;-85
2021/01/22 12:24:43;;;;;;;31.05;19.90;;;12.40;63.00;;;;;;5055511;28;20029;-83
2021/01/22 12:27:09;;;;;;;31.25;21.00;;;12.60;61.00;;;;;;5055719;28;20025;-81
2021/01/22 12:29:35;;;;;;;35.88;23.70;;;12.40;58.60;;;;;;5055715;28;20025;-82
2021/01/22 12:32:02;;;;;;;33.20;20.10;;;11.90;57.70;;;;;;5055173;28;20091;-82
2021/01/22 12:34:28;;;;;;;33.40;21.33;;;11.20;57.20;;;;;;5055271;28;20114;-84
2021/01/22 12:36:54;;;;;;;35.85;21.65;;;10.40;57.70;;;;;;5054965;28;20029;-83
2021/01/22 12:39:30;;;;;;;35.58;22.60;;;9.90;59.30;;;;;;5055337;28;20078;-82
2021/01/22 12:41:56;;;;;;;36.03;22.05;;;9.30;60.00;;;;;;5054868;28;20521;-82
2021/01/22 12:44:22;;;;;;;37.90;22.73;;;8.90;60.80;;;;;;5055088;28;20021;-83
2021/01/22 12:46:49;;;;;;;47.00;27.73;;;8.60;61.50;;;;;;5055848;28;20035;-82
2021/01/22 12:49:15;;;;;;;41.28;25.92;;;8.30;62.10;;;;;;5037451;28;20021;-82
2021/01/22 12:51:40;;;;;;;47.58;26.58;;;8.00;63.10;;;;;;5054867;28;20036;-83
2021/01/22 12:54:12;;;;;;;51.45;27.88;;;7.90;63.60;;;;;;5055087;28;20043;-82
2021/01/22 12:56:39;;;;;;;47.00;25.27;;;7.60;63.60;;;;;;5055741;28;20174;-83
2021/01/22 12:59:10;;;;;;;55.53;27.35;;;7.40;64.00;;;;;;5054889;28;20466;-82
2021/01/22 13:01:36;;;;;;;53.35;28.20;;;7.20;64.60;;;;;;5053610;28;20111;-82
2021/01/22 13:04:02;;;;;;;53.22;26.38;;;7.00;64.80;;;;;;5051440;28;20451;-82
2021/01/22 13:06:28;;;;;;;56.70;29.92;;;6.80;65.50;;;;;;5034864;28;20052;-81
2021/01/22 13:08:54;;;;;;;64.13;31.95;;;6.60;66.20;;;;;;5034927;28;20033;-81
2021/01/22 13:11:20;;;;;;;61.08;32.40;;;6.50;66.70;;;;;;5017578;28;20095;-83
2021/01/22 13:13:46;;;;;;;57.40;30.10;;;6.50;67.20;;;;;;5034972;28;20068;-80
2021/01/22 13:16:11;;;;;;;54.70;29.02;;;6.40;67.40;;;;;;5016991;28;20052;-80
2021/01/22 13:18:37;;;;;;;58.13;29.90;;;6.30;67.40;;;;;;5034980;28;20060;-82
2021/01/22 13:21:03;;;;;;;60.13;30.02;;;6.20;67.60;;;;;;5034397;28;20455;-82
2021/01/22 13:23:42;;;;;;;53.92;28.60;;;6.10;67.90;;;;;;5034300;28;20030;-83
2021/01/22 13:26:16;;;;;;;46.25;26.38;;;6.10;68.50;;;;;;5034730;28;20032;-82
2021/01/22 13:28:46;;;;;;;46.45;24.63;;;6.00;68.70;;;;;;5034780;28;20036;-82